Time;durP1;ratioP1;P1;durP2;ratioP2;P2;SDS_P1;SDS_P2;PMS_P1;PMS_P2;Temp;Humidity;BMP_temperature;BMP_pressure;BME280_temperature;BME280_humidity;BME280_pressure;Samples;Min_cycle;Max_cycle;Signal;HPM_P1;HPM_P2
2022/07/02 00:00:05;;;;;;;11.87;9.20;;;;;;;22.96;70.69;97195.06;5067510;28;20192;-70
2022/07/02 00:02:40;;;;;;;11.03;9.90;;;;;;;;;;5066647;28;20206;-70
2022/07/02 00:05:07;;;;;;;12.70;10.73;;;;;;;23.08;69.42;97192.13;5048789;28;20185;-70
2022/07/02 00:07:34;;;;;;;12.63;9.20;;;;;;;23.18;69.12;97194.75;5066189;28;20193;-70
2022/07/02 00:10:03;;;;;;;9.93;8.63;;;;;;;23.15;68.88;97195.03;5066377;28;20254;-70
2022/07/02 00:12:30;;;;;;;13.17;9.40;;;;;;;23.00;69.60;97189.38;5048304;28;20194;-70
2022/07/02 00:14:59;;;;;;;12.20;10.63;;;;;;;23.00;69.45;97181.44;5047852;28;20671;-70
2022/07/02 00:17:28;;;;;;;16.47;10.53;;;;;;;23.12;69.22;97190.84;5066759;28;20194;-70
2022/07/02 00:19:56;;;;;;;14.43;10.03;;;;;;;23.30;68.83;97194.44;5066231;28;20194;-70
2022/07/02 00:22:23;;;;;;;12.00;10.80;;;;;;;23.15;69.20;97189.75;5066515;28;20669;-71
2022/07/02 00:24:50;;;;;;;11.77;10.30;;;;;;;23.02;70.25;97181.31;5048298;28;20243;-72
2022/07/02 00:27:19;;;;;;;11.73;9.87;;;;;;;22.96;69.71;97190.63;5066335;28;20191;-72
2022/07/02 00:29:58;;;;;;;11.83;9.57;;;;;;;22.95;69.91;97185.50;5049114;28;20203;-71
2022/07/02 00:32:27;;;;;;;13.67;9.87;;;;;;;22.79;70.65;97193.19;5070279;28;20188;-71
2022/07/02 00:34:57;;;;;;;10.37;9.23;;;;;;;22.59;70.66;97182.63;5052609;28;20251;-71
2022/07/02 00:37:28;;;;;;;15.77;10.70;;;;;;;22.51;71.45;97195.66;5069552;28;20313;-70
2022/07/02 00:39:55;;;;;;;12.13;10.17;;;;;;;22.55;71.75;97190.94;5069747;28;20758;-70
2022/07/02 00:42:24;;;;;;;12.47;9.93;;;;;;;22.62;71.13;97186.81;5051867;28;20189;-71
2022/07/02 00:44:53;;;;;;;10.77;9.67;;;;;;;22.56;71.56;97197.91;5051466;28;20719;-70
2022/07/02 00:47:23;;;;;;;12.27;10.37;;;;;;;22.37;72.62;97192.63;5069900;28;20192;-70
2022/07/02 00:49:50;;;;;;;12.80;11.03;;;;;;;22.29;73.10;97195.94;5069502;28;20220;-70
2022/07/02 00:52:17;;;;;;;15.13;11.03;;;;;;;22.26;72.98;97196.22;5069755;28;20183;-71
2022/07/02 00:54:44;;;;;;;11.73;10.40;;;;;;;22.15;73.55;97182.34;5069114;28;20228;-71
2022/07/02 00:57:11;;;;;;;13.37;11.23;;;;;;;21.97;74.16;97189.25;5069549;28;20192;-70
2022/07/02 00:59:40;;;;;;;12.43;11.13;;;;;;;21.72;74.87;97190.56;5069508;28;20193;-70
2022/07/02 01:02:07;;;;;;;11.40;10.20;;;;;;;21.76;75.51;97186.69;5069448;28;20188;-71
2022/07/02 01:04:35;;;;;;;14.40;10.90;;;;;;;21.90;75.21;97183.69;5069664;28;20225;-71
2022/07/02 01:07:10;;;;;;;12.97;11.10;;;;;;;21.80;75.80;97188.09;5069037;28;20644;-71
2022/07/02 01:12:26;;;;;;;12.20;10.83;;;;;;;21.71;76.27;97188.88;5069281;28;20720;-70
2022/07/02 01:14:54;;;;;;;11.67;10.47;;;;;;;21.65;76.42;97181.50;5069188;28;20223;-70
2022/07/02 01:17:21;;;;;;;12.00;10.83;;;;;;;21.67;76.46;97187.47;5069544;28;20188;-71
2022/07/02 01:19:49;;;;;;;14.97;11.43;;;;;;;21.59;76.86;97189.97;5050785;28;20205;-70
2022/07/02 01:22:21;;;;;;;13.60;10.97;;;;;;;21.38;77.16;97184.75;5069564;28;20655;-70
2022/07/02 01:24:53;;;;;;;12.87;9.93;;;;;;;21.25;76.94;97141.13;5068830;28;20273;-70
2022/07/02 01:27:22;;;;;;;12.37;10.70;;;;;;;21.28;77.38;97175.13;5068917;28;20189;-70
2022/07/02 01:29:50;;;;;;;14.37;10.87;;;;;;;21.25;77.75;97178.03;5068733;28;20667;-70
2022/07/02 01:32:18;;;;;;;13.37;10.63;;;;;;;21.14;78.17;97186.03;5068743;28;20194;-70
2022/07/02 01:34:48;;;;;;;12.30;9.97;;;;;;;21.16;78.17;97182.31;5068988;28;20190;-70
2022/07/02 01:37:19;;;;;;;16.70;11.13;;;;;;;21.11;78.86;97173.13;5068685;28;20217;-70
2022/07/02 01:39:47;;;;;;;11.67;10.20;;;;;;;21.11;78.48;97170.47;5051086;28;20265;-70
2022/07/02 01:42:14;;;;;;;13.50;11.33;;;;;;;21.06;78.68;97176.97;5068574;28;20182;-70
2022/07/02 01:44:43;;;;;;;10.43;9.43;;;;;;;21.02;78.79;97175.56;5068439;28;20671;-70
2022/07/02 01:47:11;;;;;;;13.93;10.13;;;;;;;21.03;78.77;97177.25;5068450;28;20211;-70
2022/07/02 01:49:39;;;;;;;12.47;10.30;;;;;;;20.93;78.92;97175.50;5068806;28;20181;-70
2022/07/02 01:52:07;;;;;;;12.60;10.00;;;;;;;20.86;78.99;97172.53;5050577;28;20197;-70
2022/07/02 01:54:35;;;;;;;11.03;9.93;;;;;;;20.75;78.96;97169.97;5068299;28;20742;-70
2022/07/02 01:57:02;;;;;;;11.30;9.57;;;;;;;20.71;79.02;97170.38;5069097;28;20186;-70
2022/07/02 01:59:30;;;;;;;13.20;10.47;;;;;;;20.72;79.32;97170.25;5068102;28;20288;-70
2022/07/02 02:01:57;;;;;;;14.27;10.27;;;;;;;20.62;79.59;97174.63;5050447;28;20185;-70
2022/07/02 02:04:24;;;;;;;13.80;10.83;;;;;;;20.71;79.49;97189.63;5050224;28;20186;-70
2022/07/02 02:06:51;;;;;;;13.07;11.57;;;;;;;20.69;79.46;97188.09;5068223;28;20303;-72
2022/07/02 02:09:18;;;;;;;13.70;10.60;;;;;;;20.70;79.27;97181.88;5068489;28;20188;-71
2022/07/02 02:11:45;;;;;;;16.40;11.40;;;;;;;20.78;79.07;97182.06;5068172;28;20193;-70
2022/07/02 02:14:12;;;;;;;12.63;11.30;;;;;;;20.78;78.90;97182.88;5068240;28;20192;-71
2022/07/02 02:16:40;;;;;;;11.97;10.77;;;;;;;20.78;78.82;97182.06;5067932;28;20231;-71
2022/07/02 02:19:07;;;;;;;12.53;11.23;;;;;;;20.78;78.95;97192.59;5067908;28;20209;-71
2022/07/02 02:21:34;;;;;;;14.97;11.53;;;;;;;20.75;78.91;97191.03;5067885;28;20483;-70
2022/07/02 02:24:01;;;;;;;16.20;12.00;;;;;;;20.71;79.00;97192.25;5067899;28;20657;-71
2022/07/02 02:26:28;;;;;;;13.57;11.77;;;;;;;20.67;79.54;97192.66;5067909;28;20190;-71
2022/07/02 02:28:55;;;;;;;13.77;11.73;;;;;;;20.51;79.75;97174.66;5067588;28;20200;-71
2022/07/02 02:31:23;;;;;;;13.43;11.27;;;;;;;20.56;80.06;97196.19;5068128;28;20177;-71
2022/07/02 02:33:50;;;;;;;15.30;12.23;;;;;;;20.40;80.43;97192.31;5067807;28;20186;-71
2022/07/02 02:36:17;;;;;;;13.67;12.27;;;;;;;20.32;81.22;97186.84;5067838;28;20224;-71
2022/07/02 02:38:46;;;;;;;14.53;13.03;;;;;;;20.37;80.98;97196.03;5076213;28;20192;-71
2022/07/02 02:41:14;;;;;;;13.57;12.17;;;;;;;20.33;80.90;97186.72;5087894;28;20385;-71
2022/07/02 02:43:41;;;;;;;13.20;11.30;;;;;;;20.32;81.75;97190.28;5088080;28;20284;-71
2022/07/02 02:46:10;;;;;;;13.07;11.67;;;;;;;20.24;81.78;97187.47;5085591;28;20187;-71
2022/07/02 02:48:37;;;;;;;14.53;11.80;;;;;;;20.24;81.66;97193.56;5067772;28;20179;-71
2022/07/02 02:51:06;;;;;;;28.33;12.40;;;;;;;20.22;82.25;97184.97;5067083;28;20190;-71
2022/07/02 02:53:34;;;;;;;13.17;11.40;;;;;;;20.16;81.99;97185.44;5049011;28;20561;-71
2022/07/02 02:56:02;;;;;;;13.67;11.17;;;;;;;20.30;81.45;97188.78;5068827;28;20286;-71
2022/07/02 02:58:29;;;;;;;12.17;10.17;;;;;;;20.54;80.55;97190.22;5067182;28;20212;-72
2022/07/02 03:00:56;;;;;;;12.07;10.50;;;;;;;20.63;79.49;97202.59;5049077;28;20718;-71
2022/07/02 03:03:23;;;;;;;12.93;10.87;;;;;;;20.69;79.13;97196.81;5066963;28;20196;-70
2022/07/02 03:05:56;;;;;;;14.53;10.67;;;;;;;21.05;77.52;97185.84;5049607;28;20237;-71
2022/07/02 03:08:32;;;;;;;12.13;9.93;;;;;;;21.24;76.57;97195.66;5067320;28;20181;-71
2022/07/02 03:11:02;;;;;;;13.20;10.40;;;;;;;21.26;76.09;97195.50;5067322;28;20199;-71
2022/07/02 03:13:29;;;;;;;10.57;9.57;;;;;;;21.49;75.66;97189.09;5066860;28;20583;-71
2022/07/02 03:15:56;;;;;;;15.03;10.10;;;;;;;21.74;74.48;97199.16;5067032;28;20245;-72
2022/07/02 03:18:23;;;;;;;11.07;9.53;;;;;;;21.79;74.09;97186.41;5067381;28;20195;-72
2022/07/02 03:20:59;;;;;;;12.27;9.57;;;;;;;21.88;73.88;97201.44;5066746;28;20185;-72
2022/07/02 03:23:26;;;;;;;12.67;9.83;;;;;;;21.87;73.43;97194.50;5049751;28;20187;-71
2022/07/02 03:25:54;;;;;;;11.47;9.30;;;;;;;21.98;73.33;97191.75;5050419;28;20191;-72
2022/07/02 03:28:22;;;;;;;11.20;9.30;;;;;;;22.04;73.03;97183.28;5059440;28;20197;-72
2022/07/02 03:30:53;;;;;;;10.60;9.10;;;;;;;22.01;73.35;97193.28;5087133;28;20645;-71
2022/07/02 03:33:20;;;;;;;10.10;8.83;;;;;;;22.08;73.24;97197.88;5068831;28;20195;-71
2022/07/02 03:35:51;;;;;;;12.77;9.13;;;;;;;22.15;72.66;97201.66;5075061;28;20308;-72
2022/07/02 03:38:18;;;;;;;12.30;10.33;;;;;;;22.13;72.45;97211.50;5073290;28;20190;-72
2022/07/02 03:40:45;;;;;;;10.40;9.30;;;;;;;22.08;72.30;97210.22;5087216;28;20218;-72
2022/07/02 03:43:12;;;;;;;12.73;9.43;;;;;;;22.04;72.90;97211.47;5073412;28;20253;-69
2022/07/02 03:45:40;;;;;;;11.23;10.00;;;;;;;22.03;72.88;97204.53;5066852;28;20265;-72
2022/07/02 03:48:11;;;;;;;12.27;8.87;;;;;;;22.09;72.76;97210.06;5048656;28;20756;-72
2022/07/02 03:50:40;;;;;;;13.80;9.60;;;;;;;22.40;71.74;97202.91;5077511;28;20747;-72
2022/07/02 03:53:10;;;;;;;12.57;9.90;;;;;;;23.06;69.61;97225.78;5086822;28;20188;-71
2022/07/02 03:55:38;;;;;;;12.33;9.40;;;;;;;23.59;67.90;97212.84;5051593;28;20307;-70
2022/07/02 03:58:07;;;;;;;10.53;9.53;;;;;;;23.57;66.64;97222.75;5086704;28;20198;-70
2022/07/02 04:00:34;;;;;;;11.10;9.50;;;;;;;23.44;67.45;97223.06;5068564;28;20237;-72
2022/07/02 04:03:01;;;;;;;11.17;10.07;;;;;;;23.23;67.67;97227.69;5086719;28;20276;-72
2022/07/02 04:05:28;;;;;;;11.77;10.20;;;;;;;23.04;67.84;97234.84;5089846;28;20188;-72
2022/07/02 04:07:57;;;;;;;10.93;9.83;;;;;;;22.83;68.45;97221.81;5090944;28;20625;-72
2022/07/02 04:10:28;;;;;;;12.20;10.90;;;;;;;23.01;68.32;97224.56;5072598;28;20195;-72
2022/07/02 04:12:56;;;;;;;12.63;10.73;;;;;;;23.27;67.58;97225.59;5072620;28;20261;-72
2022/07/02 04:15:23;;;;;;;11.60;10.50;;;;;;;23.24;67.50;97224.09;5091213;28;20256;-72
2022/07/02 04:17:50;;;;;;;12.60;10.30;;;;;;;23.20;67.96;97228.00;5090476;28;20676;-70
2022/07/02 04:20:17;;;;;;;10.87;9.40;;;;;;;23.40;67.49;97234.06;5091091;28;20199;-70
2022/07/02 04:22:44;;;;;;;12.17;9.73;;;;;;;23.43;67.40;97231.16;5090377;28;20196;-71
2022/07/02 04:25:17;;;;;;;14.57;10.20;;;;;;;23.42;67.81;97232.13;5071945;28;20282;-69
2022/07/02 04:27:44;;;;;;;11.77;9.63;;;;;;;23.40;67.68;97226.16;5090301;28;20619;-69
2022/07/02 04:30:12;;;;;;;12.27;9.60;;;;;;;23.57;67.05;97232.47;5090397;28;20718;-69
2022/07/02 04:32:39;;;;;;;12.53;10.20;;;;;;;23.68;67.07;97235.75;5056082;28;20290;-70
2022/07/02 04:35:06;;;;;;;14.37;10.00;;;;;;;23.77;67.41;97245.47;5071684;28;20193;-70
2022/07/02 04:37:37;;;;;;;11.60;9.90;;;;;;;24.18;66.14;97236.22;5072081;28;20244;-72
2022/07/02 04:40:06;;;;;;;14.80;10.03;;;;;;;24.22;65.66;97241.06;5089916;28;20194;-71
2022/07/02 04:42:39;;;;;;;14.17;10.87;;;;;;;24.24;66.24;97240.91;5071389;28;20204;-72
2022/07/02 04:45:07;;;;;;;9.60;8.67;;;;;;;24.23;66.29;97232.13;5071954;28;20279;-71
2022/07/02 04:47:35;;;;;;;11.60;9.67;;;;;;;24.55;65.65;97238.75;5089547;28;20197;-70
2022/07/02 04:50:02;;;;;;;9.67;8.07;;;;;;;24.94;64.31;97235.66;5072082;28;20573;-70
2022/07/02 04:52:29;;;;;;;13.67;9.00;;;;;;;25.42;61.86;97227.22;5089769;28;20279;-71
2022/07/02 04:54:56;;;;;;;12.87;10.40;;;;;;;25.80;60.27;97231.22;5090090;28;20235;-71
2022/07/02 04:57:24;;;;;;;11.20;10.13;;;;;;;26.41;58.94;97237.09;5071721;28;20220;-73
2022/07/02 04:59:56;;;;;;;11.60;10.27;;;;;;;26.75;58.31;97236.97;5070182;28;20196;-72
2022/07/02 05:02:42;;;;;;;13.93;11.80;;;;;;;26.91;56.61;97231.69;5066399;28;20197;-72
2022/07/02 05:05:22;;;;;;;14.20;11.63;;;;;;;27.20;55.95;97242.59;5050919;28;20258;-71
2022/07/02 05:07:51;;;;;;;17.27;11.57;;;;;;;27.39;55.19;97244.09;5069805;28;20213;-72
2022/07/02 05:10:18;;;;;;;15.93;11.97;;;;;;;27.34;55.24;97246.47;5069190;28;20814;-71
2022/07/02 05:12:45;;;;;;;15.33;11.20;;;;;;;27.52;54.53;97243.59;5069301;28;20185;-71
2022/07/02 05:15:15;;;;;;;14.20;10.93;;;;;;;27.15;55.34;97244.97;5069160;28;20190;-71
2022/07/02 05:17:43;;;;;;;13.23;10.83;;;;;;;27.23;55.52;97228.97;5068626;28;20244;-72
2022/07/02 05:20:13;;;;;;;15.47;10.20;;;;;;;27.27;54.56;97240.94;5034972;28;20554;-72
2022/07/02 05:22:44;;;;;;;16.73;11.53;;;;;;;27.59;54.25;97241.91;5034335;28;20538;-72
2022/07/02 05:25:11;;;;;;;11.80;10.60;;;;;;;27.43;54.15;97244.63;5069765;28;20284;-71
2022/07/02 05:27:41;;;;;;;12.77;10.10;;;;;;;27.14;54.86;97247.78;5050810;28;20197;-71
2022/07/02 05:30:08;;;;;;;11.60;10.50;;;;;;;27.15;55.39;97242.28;5051454;28;20208;-71
2022/07/02 05:32:35;;;;;;;11.97;10.70;;;;;;;27.51;55.28;97240.13;5068648;28;20197;-71
2022/07/02 05:35:03;;;;;;;16.50;10.13;;;;;;;27.94;53.82;97236.97;5068851;28;20188;-72
2022/07/02 05:37:30;;;;;;;14.20;9.33;;;;;;;28.08;53.29;97246.91;5068568;28;20229;-71
2022/07/02 05:39:57;;;;;;;10.40;9.43;;;;;;;28.19;52.73;97243.03;5050499;28;20198;-69
2022/07/02 05:42:24;;;;;;;14.77;10.97;;;;;;;28.33;52.63;97239.63;5068873;28;20186;-71
2022/07/02 05:44:51;;;;;;;12.50;9.97;;;;;;;28.24;52.43;97245.16;5050464;28;20193;-70
2022/07/02 05:47:18;;;;;;;10.27;9.27;;;;;;;27.88;53.19;97247.47;5068301;28;20190;-70
2022/07/02 05:49:48;;;;;;;11.60;10.50;;;;;;;27.75;54.04;97239.19;5050544;28;20197;-70
2022/07/02 05:52:17;;;;;;;15.53;11.20;;;;;;;27.69;54.52;97245.22;5050375;28;20243;-71
2022/07/02 05:54:44;;;;;;;11.57;9.77;;;;;;;27.97;54.37;97238.47;5068063;28;20185;-71
2022/07/02 05:57:12;;;;;;;13.87;9.40;;;;;;;28.30;52.56;97239.13;5068190;28;20324;-71
2022/07/02 05:59:42;;;;;;;10.57;7.90;;;;;;;28.63;51.46;97245.94;5050927;28;20653;-71
2022/07/02 06:02:09;;;;;;;11.27;8.90;;;;;;;28.68;51.97;97249.78;5067838;28;20185;-72
2022/07/02 06:04:36;;;;;;;12.40;10.10;;;;;;;28.68;52.33;97243.59;5068166;28;20289;-73
2022/07/02 06:10:19;;;;;;;11.67;8.40;;;;;;;29.11;50.91;97242.91;4996037;28;20198;-71
2022/07/02 06:12:51;;;;;;;8.83;7.97;;;;;;;29.20;51.71;97249.88;5025768;28;20190;-71
2022/07/02 06:15:19;;;;;;;8.47;7.57;;;;;;;29.57;50.21;97251.69;5060637;28;20242;-71
2022/07/02 06:17:47;;;;;;;11.80;7.50;;;;;;;29.41;49.77;97250.00;5088079;28;20282;-72
2022/07/02 06:20:15;;;;;;;9.13;7.67;;;;;;;28.91;50.66;97249.75;5069848;28;20250;-72
2022/07/02 06:22:49;;;;;;;10.60;8.17;;;;;;;28.67;51.59;97248.09;5088239;28;20245;-71
2022/07/02 06:25:16;;;;;;;8.50;7.37;;;;;;;28.69;51.52;97246.09;5069390;28;20238;-70
2022/07/02 06:27:43;;;;;;;10.07;7.30;;;;;;;28.82;51.86;97251.66;5086712;28;20184;-70
2022/07/02 06:30:10;;;;;;;8.60;7.73;;;;;;;29.04;50.64;97254.50;5070195;28;20242;-70
2022/07/02 06:32:38;;;;;;;9.63;8.00;;;;;;;29.50;50.13;97246.25;5068908;28;20246;-71
2022/07/02 06:35:05;;;;;;;9.00;6.80;;;;;;;29.72;49.34;97242.69;5069569;28;20559;-71
2022/07/02 06:37:32;;;;;;;8.70;7.40;;;;;;;29.91;49.63;97248.47;5069055;28;20234;-71
2022/07/02 06:39:59;;;;;;;11.57;10.37;;;;;;;29.80;48.82;97246.28;5087660;28;20181;-71
2022/07/02 06:42:29;;;;;;;8.70;7.27;;;;;;;29.68;49.79;97251.22;5087429;28;20241;-72
2022/07/02 06:44:58;;;;;;;7.23;5.63;;;;;;;29.81;46.65;97251.44;5068867;28;20195;-71
2022/07/02 06:47:27;;;;;;;8.70;6.20;;;;;;;29.94;46.70;97251.63;5069143;28;20192;-71
2022/07/02 06:49:56;;;;;;;7.80;6.57;;;;;;;30.02;46.68;97240.84;5068591;28;20193;-71
2022/07/02 06:52:24;;;;;;;9.17;6.93;;;;;;;30.34;46.75;97250.28;5068343;28;20216;-72
2022/07/02 06:54:51;;;;;;;11.30;7.37;;;;;;;30.67;46.07;97242.63;5087066;28;20203;-72
2022/07/02 06:57:18;;;;;;;10.00;7.60;;;;;;;30.76;45.63;97254.84;5068915;28;20649;-72
2022/07/02 06:59:53;;;;;;;8.80;6.10;;;;;;;30.90;45.43;97256.66;5087542;28;20591;-70
2022/07/02 07:02:21;;;;;;;6.80;6.10;;;;;;;30.84;44.87;97246.69;5087153;28;20189;-72
2022/07/02 07:04:49;;;;;;;6.97;6.33;;;;;;;30.83;45.63;97247.75;5087651;28;20283;-71
2022/07/02 07:07:17;;;;;;;8.40;6.50;;;;;;;30.94;45.66;97247.25;5087111;28;20729;-72
2022/07/02 07:09:44;;;;;;;8.03;6.60;;;;;;;30.95;45.00;97255.09;5069414;28;20193;-70
2022/07/02 07:12:11;;;;;;;7.60;6.90;;;;;;;30.74;44.33;97248.88;5086580;28;20263;-70
2022/07/02 07:14:38;;;;;;;7.90;6.30;;;;;;;30.61;44.84;97259.41;5069007;28;20200;-71
2022/07/02 07:17:06;;;;;;;8.60;6.87;;;;;;;30.69;44.98;97259.31;5087038;28;20216;-71
2022/07/02 07:19:33;;;;;;;11.80;7.67;;;;;;;30.92;44.70;97254.63;5086406;28;20213;-71
2022/07/02 07:22:01;;;;;;;14.10;8.00;;;;;;;31.08;45.06;97246.34;5087291;28;20550;-70
2022/07/02 07:24:29;;;;;;;10.20;6.80;;;;;;;31.14;44.10;97264.31;5068109;28;21028;-71
2022/07/02 07:26:57;;;;;;;8.93;7.73;;;;;;;31.19;45.03;97269.91;5086679;28;20647;-71
2022/07/02 07:29:24;;;;;;;9.93;6.90;;;;;;;31.23;44.26;97268.50;5086293;28;20288;-71
2022/07/02 07:31:52;;;;;;;8.27;7.07;;;;;;;31.39;44.58;97268.25;5086630;28;20185;-71
2022/07/02 07:34:19;;;;;;;9.83;7.50;;;;;;;31.57;43.63;97271.28;5068444;28;20189;-71
2022/07/02 07:36:46;;;;;;;12.00;7.63;;;;;;;31.62;42.47;97268.00;5068779;28;20236;-71
2022/07/02 07:39:13;;;;;;;8.00;6.82;;;;;;;31.85;42.37;97269.41;5087392;28;20276;-70
2022/07/02 07:41:40;;;;;;;8.35;6.38;;;;;;;31.92;42.49;97275.59;5092915;28;20242;-70
2022/07/02 07:44:08;;;;;;;10.20;7.20;;;;;;;31.49;43.35;97176.88;5078017;28;20195;-71
2022/07/02 07:46:35;;;;;;;7.53;6.63;;;;;;;31.91;43.18;97262.41;5095881;28;20256;-72
2022/07/02 07:49:02;;;;;;;7.20;6.07;;;;;;;31.98;42.96;97269.47;5090405;28;20184;-71
2022/07/02 07:51:29;;;;;;;9.02;7.22;;;;;;;32.06;42.78;97264.00;5087406;28;20195;-71
2022/07/02 07:53:57;;;;;;;9.65;7.40;;;;;;;32.19;42.02;97275.78;5086505;28;20192;-71
2022/07/02 07:56:24;;;;;;;8.15;7.30;;;;;;;32.33;41.22;97274.81;5068577;28;20615;-71
2022/07/02 07:58:51;;;;;;;6.88;6.28;;;;;;;32.41;39.92;97278.16;5086826;28;20227;-72
2022/07/02 08:01:18;;;;;;;7.05;6.30;;;;;;;32.49;40.47;97274.50;5086810;28;20195;-71
2022/07/02 08:03:45;;;;;;;9.43;6.97;;;;;;;32.44;40.41;97274.25;5086403;28;20184;-71
2022/07/02 08:06:12;;;;;;;8.45;6.47;;;;;;;32.37;40.49;97274.22;5068230;28;20205;-71
2022/07/02 08:08:39;;;;;;;9.15;6.75;;;;;;;31.64;41.66;97284.69;5068327;28;20180;-71
2022/07/02 08:11:07;;;;;;;9.85;6.97;;;;;;;31.28;42.70;97272.25;5068514;28;20192;-71
2022/07/02 08:13:34;;;;;;;7.37;6.60;;;;;;;31.65;42.78;97271.13;5067863;28;20197;-71
2022/07/02 08:16:02;;;;;;;8.60;7.70;;;;;;;31.70;43.01;97282.06;5085449;28;20228;-72
2022/07/02 08:18:29;;;;;;;10.20;6.93;;;;;;;32.03;42.38;97260.84;5085534;28;20293;-71
2022/07/02 08:20:56;;;;;;;9.05;8.13;;;;;;;32.33;42.34;97277.50;5085606;28;20623;-71
2022/07/02 08:23:27;;;;;;;12.15;7.53;;;;;;;32.54;41.97;97275.53;5067379;28;20699;-71
2022/07/02 08:25:56;;;;;;;13.35;7.28;;;;;;;32.77;41.30;97278.69;5067818;28;20192;-71
2022/07/02 08:28:24;;;;;;;9.52;8.48;;;;;;;32.80;40.50;97275.63;5085160;28;20185;-71
2022/07/02 08:30:51;;;;;;;7.80;6.90;;;;;;;32.76;40.51;97295.00;5086615;28;20691;-71
2022/07/02 08:33:33;;;;;;;7.90;6.95;;;;;;;32.91;39.68;97274.19;5085515;28;20698;-71
2022/07/02 08:36:00;;;;;;;9.10;6.65;;;;;;;33.06;39.52;97276.69;5085812;28;20726;-72
2022/07/02 08:38:27;;;;;;;9.93;7.53;;;;;;;33.25;38.89;97282.09;5067482;28;20216;-72
2022/07/02 08:40:54;;;;;;;9.30;7.07;;;;;;;33.23;38.95;97286.84;5085741;28;20192;-72
2022/07/02 08:43:26;;;;;;;8.93;7.68;;;;;;;33.27;38.86;97293.47;5086172;28;20200;-72
2022/07/02 08:45:54;;;;;;;9.30;7.75;;;;;;;33.04;40.22;97287.66;5085509;28;20275;-72
2022/07/02 08:48:23;;;;;;;7.30;6.70;;;;;;;32.96;40.09;97290.50;5086096;28;20189;-72
2022/07/02 08:50:51;;;;;;;7.80;7.03;;;;;;;32.72;40.13;97259.72;5085997;28;20223;-72
2022/07/02 08:53:18;;;;;;;8.05;7.10;;;;;;;32.77;40.37;97289.44;5089027;28;20276;-70
2022/07/02 08:55:49;;;;;;;10.52;6.75;;;;;;;32.52;40.49;97290.19;5088997;28;20681;-72
2022/07/02 08:58:17;;;;;;;10.07;7.28;;;;;;;32.26;40.81;97298.09;5070508;28;20274;-72
2022/07/02 09:00:46;;;;;;;9.30;6.70;;;;;;;32.03;41.36;97293.84;5088889;28;20204;-72
2022/07/02 09:03:14;;;;;;;8.13;6.90;;;;;;;31.91;42.61;97300.75;5070745;28;20246;-72
2022/07/02 09:05:42;;;;;;;11.77;6.68;;;;;;;31.60;43.02;97315.56;5054010;28;20197;-71
2022/07/02 09:08:15;;;;;;;7.97;7.18;;;;;;;31.36;43.79;97308.78;5089153;28;20188;-72
2022/07/02 09:10:43;;;;;;;13.73;7.47;;;;;;;31.28;43.93;97309.72;5088938;28;20189;-72
2022/07/02 09:13:12;;;;;;;8.07;6.97;;;;;;;30.90;44.64;97312.84;5088733;28;20226;-71
2022/07/02 09:15:39;;;;;;;11.80;7.13;;;;;;;30.96;44.13;97314.75;5070252;28;20184;-71
2022/07/02 09:18:06;;;;;;;10.57;7.43;;;;;;;30.83;44.08;97303.91;5082109;28;20716;-71
2022/07/02 09:20:33;;;;;;;8.83;7.30;;;;;;;30.93;44.53;97294.59;5059496;28;20594;-71
2022/07/02 09:23:00;;;;;;;9.70;7.23;;;;;;;31.28;43.76;97298.22;5054500;28;20213;-71
2022/07/02 09:25:30;;;;;;;7.93;7.13;;;;;;;31.35;43.63;97308.97;5088818;28;20189;-71
2022/07/02 09:28:03;;;;;;;12.20;9.33;;;;;;;31.22;43.85;97304.34;5086926;28;20184;-71
2022/07/02 09:30:33;;;;;;;10.17;7.10;;;;;;;31.21;44.13;97313.38;5050706;28;20251;-71
2022/07/02 09:35:47;;;;;;;9.95;6.93;;;;;;;31.86;42.33;97297.84;5068568;28;20231;-70
2022/07/02 09:38:14;;;;;;;8.15;7.35;;;;;;;32.29;41.16;97308.41;5068107;28;20746;-71
2022/07/02 09:40:55;;;;;;;10.97;7.70;;;;;;;32.47;42.03;97298.84;5050344;28;20631;-71
2022/07/02 09:43:31;;;;;;;8.68;7.47;;;;;;;32.34;41.45;97314.00;5067950;28;20213;-70
2022/07/02 09:46:00;;;;;;;7.37;6.67;;;;;;;32.51;40.57;97307.31;5068124;28;20185;-71
2022/07/02 09:48:27;;;;;;;7.93;6.70;;;;;;;32.73;40.81;97300.75;5069336;28;20197;-71
2022/07/02 09:50:55;;;;;;;8.18;6.45;;;;;;;32.83;40.00;97290.47;5083713;28;20675;-71
2022/07/02 09:53:22;;;;;;;8.10;6.45;;;;;;;32.89;40.37;97293.16;5070282;28;20202;-71
2022/07/02 09:55:50;;;;;;;9.80;7.55;;;;;;;32.95;39.32;97280.81;5087927;28;20192;-71
2022/07/02 09:58:25;;;;;;;12.25;7.47;;;;;;;33.01;39.04;97277.34;5068187;28;20225;-70
2022/07/02 10:00:55;;;;;;;6.75;6.00;;;;;;;33.00;38.57;97286.41;5067696;28;20628;-70
2022/07/02 10:03:22;;;;;;;10.02;6.93;;;;;;;33.07;39.52;97291.78;5082237;28;20193;-70
2022/07/02 10:05:52;;;;;;;9.05;7.40;;;;;;;33.15;38.46;97287.06;5073722;28;20192;-70
2022/07/02 10:08:21;;;;;;;8.68;7.00;;;;;;;33.14;38.55;97288.06;5066904;28;20285;-70
2022/07/02 10:10:48;;;;;;;11.70;7.60;;;;;;;33.27;38.48;97282.72;5049748;28;20185;-71
2022/07/02 10:13:17;;;;;;;14.20;8.68;;;;;;;33.21;38.09;97283.56;5049904;28;20181;-72
2022/07/02 10:15:47;;;;;;;8.32;6.93;;;;;;;33.18;38.32;97288.50;5067479;28;20915;-72
2022/07/02 10:18:14;;;;;;;9.02;6.13;;;;;;;32.95;39.11;97288.88;5067548;28;20243;-71
2022/07/02 10:20:42;;;;;;;7.95;6.82;;;;;;;32.90;38.90;97275.22;5067138;28;20577;-71
2022/07/02 10:23:09;;;;;;;7.40;6.45;;;;;;;32.67;38.97;97275.59;5068781;28;20575;-71
2022/07/02 10:25:36;;;;;;;6.68;6.07;;;;;;;32.55;40.78;97276.38;5059518;28;20582;-72
2022/07/02 10:28:03;;;;;;;9.40;6.93;;;;;;;32.56;39.57;97275.34;5074700;28;20259;-72
2022/07/02 10:30:33;;;;;;;9.38;6.70;;;;;;;32.88;38.84;97282.66;5073685;28;20200;-71
2022/07/02 10:33:09;;;;;;;9.70;8.60;;;;;;;33.24;38.71;97277.75;5087358;28;20300;-71
2022/07/02 10:35:38;;;;;;;7.30;6.53;;;;;;;33.01;38.50;97244.28;5087647;28;20211;-72
2022/07/02 10:38:05;;;;;;;9.20;8.30;;;;;;;33.27;38.22;97281.88;5086818;28;20220;-71
2022/07/02 10:40:32;;;;;;;10.77;6.20;;;;;;;32.99;38.98;97274.03;5069478;28;20203;-71
2022/07/02 10:43:01;;;;;;;9.90;6.93;;;;;;;33.07;38.18;97281.06;5068290;28;20220;-71
2022/07/02 10:45:28;;;;;;;8.80;7.95;;;;;;;32.97;38.50;97283.28;5052245;28;20621;-71
2022/07/02 10:48:03;;;;;;;8.60;7.15;;;;;;;32.95;38.83;97275.44;5086958;28;20188;-71
2022/07/02 10:50:39;;;;;;;7.90;6.70;;;;;;;32.89;38.31;97273.59;5086610;28;20199;-71
2022/07/02 10:53:13;;;;;;;8.25;6.60;;;;;;;32.56;38.97;97280.72;5085526;28;20184;-71
2022/07/02 10:55:59;;;;;;;10.65;6.72;;;;;;;32.72;40.13;97273.13;5047140;28;20241;-71
2022/07/02 10:58:31;;;;;;;9.80;6.55;;;;;;;32.80;38.26;97274.78;5051715;28;20220;-71
2022/07/02 11:01:12;;;;;;;7.60;6.88;;;;;;;33.24;37.97;97272.38;5067031;28;20757;-71
2022/07/02 11:03:50;;;;;;;8.48;6.68;;;;;;;33.10;38.37;97275.28;5066826;28;20185;-71
2022/07/02 11:06:29;;;;;;;7.38;5.80;;;;;;;32.55;36.41;97281.72;5047574;28;20272;-71
2022/07/02 11:08:59;;;;;;;9.32;5.47;;;;;;;32.49;34.47;97269.13;5029163;28;20197;-70
2022/07/02 11:11:32;;;;;;;5.85;5.32;;;;;;;32.61;34.99;97271.03;5046451;28;20244;-70
2022/07/02 11:14:12;;;;;;;8.07;5.93;;;;;;;32.54;34.89;97275.53;5046268;28;20186;-71
2022/07/02 11:16:44;;;;;;;6.60;5.72;;;;;;;32.62;34.73;97277.22;5046725;28;20177;-71
2022/07/02 11:19:11;;;;;;;5.68;5.07;;;;;;;32.74;33.67;97279.13;5047017;28;20696;-69
2022/07/02 11:21:40;;;;;;;9.05;5.28;;;;;;;33.03;33.34;97272.59;5029062;28;20267;-71
2022/07/02 11:24:07;;;;;;;9.27;5.60;;;;;;;32.81;34.36;97265.69;5047199;28;20228;-70
2022/07/02 11:26:35;;;;;;;5.88;5.38;;;;;;;32.88;35.04;97261.19;5045425;28;20190;-71
2022/07/02 11:29:04;;;;;;;6.38;5.85;;;;;;;33.26;34.19;97262.25;5046840;28;20193;-70
2022/07/02 11:31:39;;;;;;;7.35;5.97;;;;;;;33.34;34.14;97272.00;5046767;28;20197;-70
2022/07/02 11:34:06;;;;;;;8.65;5.85;;;;;;;32.77;34.76;97264.44;5046616;28;20185;-70
2022/07/02 11:36:37;;;;;;;6.28;5.45;;;;;;;32.63;35.44;97265.44;5046684;28;20222;-70
2022/07/02 11:39:09;;;;;;;7.32;6.32;;;;;;;32.76;35.33;97265.50;5037813;28;20660;-71
2022/07/02 11:41:37;;;;;;;7.60;5.43;;;;;;;32.64;35.17;97262.59;5066807;28;20612;-72